sensor_id;sensor_type;location;lat;lon;timestamp;pressure;altitude;pressure_sealevel;temperature;humidity
78210;BME280;67485;48.816;9.930;2023-02-15T00:01:28;98136.38;;;-1.80;88.37
78210;BME280;67485;48.816;9.930;2023-02-15T00:03:53;98131.22;;;-1.80;88.86
78210;BME280;67485;48.816;9.930;2023-02-15T00:06:19;98127.78;;;-1.80;88.70
78210;BME280;67485;48.816;9.930;2023-02-15T00:08:46;98125.53;;;-1.92;88.46
78210;BME280;67485;48.816;9.930;2023-02-15T00:11:14;98121.09;;;-1.96;88.20
78210;BME280;67485;48.816;9.930;2023-02-15T00:13:40;98125.50;;;-1.93;88.51
78210;BME280;67485;48.816;9.930;2023-02-15T00:16:11;98128.00;;;-1.95;88.36
78210;BME280;67485;48.816;9.930;2023-02-15T00:18:38;98120.19;;;-1.97;88.21
78210;BME280;67485;48.816;9.930;2023-02-15T00:21:06;98121.34;;;-2.09;88.44
78210;BME280;67485;48.816;9.930;2023-02-15T00:23:33;98122.31;;;-2.07;89.15
78210;BME280;67485;48.816;9.930;2023-02-15T00:26:05;98126.44;;;-2.11;89.52
78210;BME280;67485;48.816;9.930;2023-02-15T00:28:31;98130.94;;;-2.05;88.80
78210;BME280;67485;48.816;9.930;2023-02-15T00:31:09;98119.47;;;-1.94;88.47
78210;BME280;67485;48.816;9.930;2023-02-15T00:33:36;98119.47;;;-1.94;87.84
78210;BME280;67485;48.816;9.930;2023-02-15T00:36:03;98118.78;;;-2.09;87.49
78210;BME280;67485;48.816;9.930;2023-02-15T00:38:30;98111.03;;;-2.11;87.13
78210;BME280;67485;48.816;9.930;2023-02-15T00:40:58;98117.94;;;-2.10;87.24
78210;BME280;67485;48.816;9.930;2023-02-15T00:43:24;98111.78;;;-2.14;87.18
78210;BME280;67485;48.816;9.930;2023-02-15T00:45:50;98115.31;;;-2.12;86.85
78210;BME280;67485;48.816;9.930;2023-02-15T00:48:18;98114.34;;;-2.14;86.88
78210;BME280;67485;48.816;9.930;2023-02-15T00:50:52;98107.44;;;-2.15;86.97
78210;BME280;67485;48.816;9.930;2023-02-15T00:53:19;98113.66;;;-2.09;87.53
78210;BME280;67485;48.816;9.930;2023-02-15T00:55:45;98101.34;;;-2.17;87.05
78210;BME280;67485;48.816;9.930;2023-02-15T00:58:12;98112.72;;;-2.12;87.73
78210;BME280;67485;48.816;9.930;2023-02-15T01:00:40;98103.78;;;-2.20;88.61
78210;BME280;67485;48.816;9.930;2023-02-15T01:03:06;98106.63;;;-2.14;89.13
78210;BME280;67485;48.816;9.930;2023-02-15T01:05:32;98110.28;;;-2.08;88.78
78210;BME280;67485;48.816;9.930;2023-02-15T01:07:59;98100.13;;;-2.05;89.03
78210;BME280;67485;48.816;9.930;2023-02-15T01:10:25;98104.34;;;-2.07;88.82
78210;BME280;67485;48.816;9.930;2023-02-15T01:12:52;98105.25;;;-2.05;88.18
78210;BME280;67485;48.816;9.930;2023-02-15T01:15:18;98104.28;;;-2.09;88.03
78210;BME280;67485;48.816;9.930;2023-02-15T01:17:44;98105.13;;;-2.08;88.22
78210;BME280;67485;48.816;9.930;2023-02-15T01:20:15;98099.25;;;-2.06;87.70
78210;BME280;67485;48.816;9.930;2023-02-15T01:22:40;98096.16;;;-1.99;88.34
78210;BME280;67485;48.816;9.930;2023-02-15T01:25:06;98090.09;;;-2.20;88.59
78210;BME280;67485;48.816;9.930;2023-02-15T01:27:32;98080.03;;;-2.35;88.36
78210;BME280;67485;48.816;9.930;2023-02-15T01:29:58;98092.75;;;-2.37;89.20
78210;BME280;67485;48.816;9.930;2023-02-15T01:32:23;98090.81;;;-2.42;89.55
78210;BME280;67485;48.816;9.930;2023-02-15T01:34:49;98091.50;;;-2.47;89.62
78210;BME280;67485;48.816;9.930;2023-02-15T01:37:15;98085.69;;;-2.42;89.13
78210;BME280;67485;48.816;9.930;2023-02-15T01:39:41;98086.47;;;-2.43;89.00
78210;BME280;67485;48.816;9.930;2023-02-15T01:42:21;98080.78;;;-2.56;89.33
78210;BME280;67485;48.816;9.930;2023-02-15T01:44:53;98080.78;;;-2.56;89.33
78210;BME280;67485;48.816;9.930;2023-02-15T01:47:38;98084.72;;;-2.45;89.24
78210;BME280;67485;48.816;9.930;2023-02-15T01:52:34;98083.66;;;-2.30;88.64
78210;BME280;67485;48.816;9.930;2023-02-15T01:55:03;98084.53;;;-2.30;87.56
78210;BME280;67485;48.816;9.930;2023-02-15T01:57:29;98075.81;;;-2.53;87.84
78210;BME280;67485;48.816;9.930;2023-02-15T01:59:58;98082.69;;;-2.52;87.71
78210;BME280;67485;48.816;9.930;2023-02-15T02:02:25;98081.88;;;-2.51;87.88
78210;BME280;67485;48.816;9.930;2023-02-15T02:04:57;98076.69;;;-2.52;88.41
78210;BME280;67485;48.816;9.930;2023-02-15T02:07:27;98074.19;;;-2.51;88.33
78210;BME280;67485;48.816;9.930;2023-02-15T02:09:53;98067.00;;;-2.58;87.87
78210;BME280;67485;48.816;9.930;2023-02-15T02:12:23;98076.00;;;-2.68;88.21
78210;BME280;67485;48.816;9.930;2023-02-15T02:14:49;98075.63;;;-2.75;87.63
78210;BME280;67485;48.816;9.930;2023-02-15T02:26:18;98077.25;;;-2.78;87.90
78210;BME280;67485;48.816;9.930;2023-02-15T02:29:47;98078.06;;;-2.79;87.43
78210;BME280;67485;48.816;9.930;2023-02-15T02:34:27;98079.81;;;-2.78;88.20
78210;BME280;67485;48.816;9.930;2023-02-15T02:37:03;98074.97;;;-2.71;88.32
78210;BME280;67485;48.816;9.930;2023-02-15T02:39:54;98084.56;;;-2.67;88.22
78210;BME280;67485;48.816;9.930;2023-02-15T02:42:37;98084.81;;;-2.81;88.35
78210;BME280;67485;48.816;9.930;2023-02-15T02:45:19;98081.59;;;-2.77;88.52
78210;BME280;67485;48.816;9.930;2023-02-15T02:47:51;98076.75;;;-2.70;88.13
78210;BME280;67485;48.816;9.930;2023-02-15T02:50:25;98076.88;;;-2.67;88.21
78210;BME280;67485;48.816;9.930;2023-02-15T02:52:53;98080.09;;;-2.71;88.57
78210;BME280;67485;48.816;9.930;2023-02-15T02:55:29;98079.94;;;-2.74;87.90
78210;BME280;67485;48.816;9.930;2023-02-15T03:00:34;98067.78;;;-2.79;87.43
78210;BME280;67485;48.816;9.930;2023-02-15T03:03:18;98066.28;;;-2.93;87.60
78210;BME280;67485;48.816;9.930;2023-02-15T03:05:47;98062.44;;;-3.03;88.75
78210;BME280;67485;48.816;9.930;2023-02-15T03:08:16;98060.78;;;-3.01;90.05
78210;BME280;67485;48.816;9.930;2023-02-15T03:10:49;98071.78;;;-3.03;89.78
78210;BME280;67485;48.816;9.930;2023-02-15T03:13:18;98068.41;;;-3.02;89.75
78210;BME280;67485;48.816;9.930;2023-02-15T03:15:48;98059.94;;;-3.01;89.67
78210;BME280;67485;48.816;9.930;2023-02-15T03:18:43;98057.88;;;-3.08;90.32
78210;BME280;67485;48.816;9.930;2023-02-15T03:21:11;98062.72;;;-3.15;89.91
78210;BME280;67485;48.816;9.930;2023-02-15T03:24:11;98063.50;;;-3.16;90.88
78210;BME280;67485;48.816;9.930;2023-02-15T03:26:39;98058.75;;;-3.08;90.15
78210;BME280;67485;48.816;9.930;2023-02-15T03:29:07;98056.41;;;-3.03;90.14
78210;BME280;67485;48.816;9.930;2023-02-15T03:31:40;98056.28;;;-3.06;90.33
78210;BME280;67485;48.816;9.930;2023-02-15T03:34:11;98056.91;;;-3.11;89.75
78210;BME280;67485;48.816;9.930;2023-02-15T03:36:51;98055.25;;;-3.10;89.39
78210;BME280;67485;48.816;9.930;2023-02-15T03:39:24;98054.22;;;-3.14;89.39
78210;BME280;67485;48.816;9.930;2023-02-15T03:44:40;98043.44;;;-3.06;88.96
78210;BME280;67485;48.816;9.930;2023-02-15T03:47:13;98040.94;;;-3.05;88.97
78210;BME280;67485;48.816;9.930;2023-02-15T03:49:53;98044.81;;;-2.95;88.92
78210;BME280;67485;48.816;9.930;2023-02-15T03:52:21;98051.28;;;-3.03;89.70
78210;BME280;67485;48.816;9.930;2023-02-15T03:54:49;98051.13;;;-3.06;90.43
78210;BME280;67485;48.816;9.930;2023-02-15T03:57:20;98047.19;;;-3.18;90.06
78210;BME280;67485;48.816;9.930;2023-02-15T04:05:26;98045.84;;;-3.46;90.34
78210;BME280;67485;48.816;9.930;2023-02-15T04:07:52;98041.19;;;-3.36;90.50
78210;BME280;67485;48.816;9.930;2023-02-15T04:10:18;98035.47;;;-3.31;90.22
78210;BME280;67485;48.816;9.930;2023-02-15T04:13:02;98031.34;;;-3.27;90.72
78210;BME280;67485;48.816;9.930;2023-02-15T04:15:27;98034.38;;;-3.18;89.57
78210;BME280;67485;48.816;9.930;2023-02-15T04:18:12;98023.97;;;-3.21;89.57
78210;BME280;67485;48.816;9.930;2023-02-15T04:20:37;98033.28;;;-3.23;88.35
78210;BME280;67485;48.816;9.930;2023-02-15T04:23:21;98034.00;;;-3.26;87.78
78210;BME280;67485;48.816;9.930;2023-02-15T04:26:06;98035.00;;;-3.22;88.14
78210;BME280;67485;48.816;9.930;2023-02-15T04:28:32;98038.66;;;-3.17;87.08
78210;BME280;67485;48.816;9.930;2023-02-15T04:30:57;98041.78;;;-3.24;87.60
78210;BME280;67485;48.816;9.930;2023-02-15T04:33:23;98037.81;;;-3.35;86.90
78210;BME280;67485;48.816;9.930;2023-02-15T04:35:49;98037.81;;;-3.35;87.59
78210;BME280;67485;48.816;9.930;2023-02-15T04:38:14;98037.16;;;-3.31;87.82
78210;BME280;67485;48.816;9.930;2023-02-15T04:40:40;98034.97;;;-3.42;87.94
78210;BME280;67485;48.816;9.930;2023-02-15T04:43:05;98036.63;;;-3.42;88.28
78210;BME280;67485;48.816;9.930;2023-02-15T04:45:31;98033.00;;;-3.29;88.26
78210;BME280;67485;48.816;9.930;2023-02-15T04:47:57;98033.13;;;-3.26;88.59
78210;BME280;67485;48.816;9.930;2023-02-15T04:50:22;98034.72;;;-3.28;88.28
78210;BME280;67485;48.816;9.930;2023-02-15T04:52:48;98034.44;;;-3.34;88.21
78210;BME280;67485;48.816;9.930;2023-02-15T04:55:14;98031.16;;;-3.32;87.98
78210;BME280;67485;48.816;9.930;2023-02-15T04:57:39;98029.59;;;-3.28;88.00
78210;BME280;67485;48.816;9.930;2023-02-15T05:00:06;98026.91;;;-3.31;88.07
78210;BME280;67485;48.816;9.930;2023-02-15T05:02:31;98014.66;;;-3.37;88.48
78210;BME280;67485;48.816;9.930;2023-02-15T05:04:57;98017.81;;;-3.43;88.65
78210;BME280;67485;48.816;9.930;2023-02-15T05:07:23;98010.72;;;-3.48;88.80
78210;BME280;67485;48.816;9.930;2023-02-15T05:09:48;98008.59;;;-3.57;88.29
78210;BME280;67485;48.816;9.930;2023-02-15T05:12:14;98013.41;;;-3.63;88.51
78210;BME280;67485;48.816;9.930;2023-02-15T05:14:40;98011.38;;;-3.70;89.43
78210;BME280;67485;48.816;9.930;2023-02-15T05:17:05;98012.47;;;-3.65;89.50
78210;BME280;67485;48.816;9.930;2023-02-15T05:19:31;98008.47;;;-3.60;90.54
78210;BME280;67485;48.816;9.930;2023-02-15T05:21:57;98009.13;;;-3.64;90.83
78210;BME280;67485;48.816;9.930;2023-02-15T05:24:23;98012.47;;;-3.65;90.36
78210;BME280;67485;48.816;9.930;2023-02-15T05:27:10;98019.81;;;-3.73;90.41
78210;BME280;67485;48.816;9.930;2023-02-15T05:29:55;98013.78;;;-3.73;90.53
78210;BME280;67485;48.816;9.930;2023-02-15T05:32:20;98019.63;;;-3.94;91.08
78210;BME280;67485;48.816;9.930;2023-02-15T05:34:46;98018.16;;;-3.89;91.60
78210;BME280;67485;48.816;9.930;2023-02-15T05:37:12;98029.88;;;-3.94;90.83
78210;BME280;67485;48.816;9.930;2023-02-15T05:39:37;98021.66;;;-3.87;91.30
78210;BME280;67485;48.816;9.930;2023-02-15T05:42:03;98025.69;;;-3.92;90.79
78210;BME280;67485;48.816;9.930;2023-02-15T05:44:29;98023.13;;;-3.92;90.45
78210;BME280;67485;48.816;9.930;2023-02-15T05:46:55;98016.84;;;-3.81;90.22
78210;BME280;67485;48.816;9.930;2023-02-15T05:49:20;98020.38;;;-3.79;90.31
78210;BME280;67485;48.816;9.930;2023-02-15T05:51:46;98015.97;;;-3.81;90.02
78210;BME280;67485;48.816;9.930;2023-02-15T05:54:12;98031.09;;;-3.86;88.92
78210;BME280;67485;48.816;9.930;2023-02-15T05:56:37;98030.81;;;-3.92;89.20
78210;BME280;67485;48.816;9.930;2023-02-15T05:59:03;98037.03;;;-3.87;88.58
78210;BME280;67485;48.816;9.930;2023-02-15T06:01:28;98040.63;;;-3.83;88.79
78210;BME280;67485;48.816;9.930;2023-02-15T06:03:54;98034.94;;;-3.78;88.89
78210;BME280;67485;48.816;9.930;2023-02-15T06:06:21;98037.56;;;-3.76;88.54
78210;BME280;67485;48.816;9.930;2023-02-15T06:08:47;98042.94;;;-3.71;88.88
78210;BME280;67485;48.816;9.930;2023-02-15T06:11:12;98040.66;;;-3.65;89.13
78210;BME280;67485;48.816;9.930;2023-02-15T06:13:38;98046.09;;;-3.59;89.05
78210;BME280;67485;48.816;9.930;2023-02-15T06:16:04;98037.31;;;-3.64;88.94
78210;BME280;67485;48.816;9.930;2023-02-15T06:18:30;98041.16;;;-3.72;89.47
78210;BME280;67485;48.816;9.930;2023-02-15T06:20:56;98033.41;;;-3.74;89.39
78210;BME280;67485;48.816;9.930;2023-02-15T06:23:21;98035.38;;;-3.68;89.84
78210;BME280;67485;48.816;9.930;2023-02-15T06:25:47;98035.44;;;-3.67;89.02
78210;BME280;67485;48.816;9.930;2023-02-15T06:28:13;98037.63;;;-3.75;89.50
78210;BME280;67485;48.816;9.930;2023-02-15T06:30:39;98039.34;;;-3.75;89.24
78210;BME280;67485;48.816;9.930;2023-02-15T06:33:04;98049.03;;;-3.86;88.53
78210;BME280;67485;48.816;9.930;2023-02-15T06:35:30;98040.72;;;-3.82;88.52
78210;BME280;67485;48.816;9.930;2023-02-15T06:37:56;98048.31;;;-3.83;88.29
78210;BME280;67485;48.816;9.930;2023-02-15T06:40:22;98050.97;;;-3.82;88.40
78210;BME280;67485;48.816;9.930;2023-02-15T06:42:47;98049.22;;;-3.83;88.80
78210;BME280;67485;48.816;9.930;2023-02-15T06:45:13;98049.03;;;-3.86;88.52
78210;BME280;67485;48.816;9.930;2023-02-15T06:47:39;98042.16;;;-3.87;89.36
78210;BME280;67485;48.816;9.930;2023-02-15T06:50:06;98032.81;;;-3.86;89.32
78210;BME280;67485;48.816;9.930;2023-02-15T06:52:32;98034.53;;;-4.03;90.58
78210;BME280;67485;48.816;9.930;2023-02-15T06:54:57;98033.97;;;-3.98;91.08
78210;BME280;67485;48.816;9.930;2023-02-15T06:57:23;98045.13;;;-3.79;91.40
78210;BME280;67485;48.816;9.930;2023-02-15T06:59:49;98043.44;;;-3.79;91.64
78210;BME280;67485;48.816;9.930;2023-02-15T07:02:14;98042.47;;;-3.81;91.29
78210;BME280;67485;48.816;9.930;2023-02-15T07:04:40;98051.13;;;-3.79;90.66
78210;BME280;67485;48.816;9.930;2023-02-15T07:07:10;98041.00;;;-3.76;90.12
78210;BME280;67485;48.816;9.930;2023-02-15T07:09:37;98036.66;;;-3.60;88.91
78210;BME280;67485;48.816;9.930;2023-02-15T07:12:03;98039.81;;;-3.48;88.01
78210;BME280;67485;48.816;9.930;2023-02-15T07:14:47;98039.00;;;-3.47;88.17
78210;BME280;67485;48.816;9.930;2023-02-15T07:17:13;98034.44;;;-3.52;87.39
78210;BME280;67485;48.816;9.930;2023-02-15T07:19:39;98041.03;;;-3.39;87.14
78210;BME280;67485;48.816;9.930;2023-02-15T07:22:05;98044.84;;;-3.31;87.40
78210;BME280;67485;48.816;9.930;2023-02-15T07:24:31;98051.78;;;-3.11;86.73
78210;BME280;67485;48.816;9.930;2023-02-15T07:26:57;98047.97;;;-3.01;86.11
78210;BME280;67485;48.816;9.930;2023-02-15T07:29:25;98048.59;;;-2.87;85.77
78210;BME280;67485;48.816;9.930;2023-02-15T07:31:51;98050.78;;;-2.77;84.92
78210;BME280;67485;48.816;9.930;2023-02-15T07:34:16;98046.88;;;-2.68;85.46
78210;BME280;67485;48.816;9.930;2023-02-15T07:36:42;98048.88;;;-2.81;86.12
78210;BME280;67485;48.816;9.930;2023-02-15T07:39:11;98046.06;;;-2.67;87.25
78210;BME280;67485;48.816;9.930;2023-02-15T07:41:36;98044.06;;;-2.55;87.20
78210;BME280;67485;48.816;9.930;2023-02-15T07:44:13;98045.41;;;-2.43;87.00
78210;BME280;67485;48.816;9.930;2023-02-15T07:46:39;98042.56;;;-2.30;86.04
78210;BME280;67485;48.816;9.930;2023-02-15T07:49:05;98040.94;;;-2.28;85.91
78210;BME280;67485;48.816;9.930;2023-02-15T07:51:31;98038.56;;;-2.23;86.21
78210;BME280;67485;48.816;9.930;2023-02-15T07:53:56;98040.63;;;-1.95;85.80
78210;BME280;67485;48.816;9.930;2023-02-15T07:56:22;98028.81;;;-1.70;84.83
78210;BME280;67485;48.816;9.930;2023-02-15T07:58:48;98032.56;;;-1.62;84.35
78210;BME280;67485;48.816;9.930;2023-02-15T08:01:21;98032.09;;;-1.52;85.10
78210;BME280;67485;48.816;9.930;2023-02-15T08:03:47;98034.66;;;-1.31;84.81
78210;BME280;67485;48.816;9.930;2023-02-15T08:06:13;98027.16;;;-1.03;83.40
78210;BME280;67485;48.816;9.930;2023-02-15T08:08:40;98030.66;;;-0.78;82.04
78210;BME280;67485;48.816;9.930;2023-02-15T08:14:01;98029.44;;;-0.41;81.15
78210;BME280;67485;48.816;9.930;2023-02-15T08:21:32;98023.00;;;-0.04;80.68
78210;BME280;67485;48.816;9.930;2023-02-15T08:23:58;98024.66;;;0.20;80.80
78210;BME280;67485;48.816;9.930;2023-02-15T08:26:25;98024.88;;;0.26;79.97
78210;BME280;67485;48.816;9.930;2023-02-15T08:28:51;98025.47;;;0.44;79.46
78210;BME280;67485;48.816;9.930;2023-02-15T08:31:17;98019.16;;;0.62;79.36
78210;BME280;67485;48.816;9.930;2023-02-15T08:33:44;98021.59;;;0.85;78.86
78210;BME280;67485;48.816;9.930;2023-02-15T08:36:13;98023.81;;;1.01;78.38
78210;BME280;67485;48.816;9.930;2023-02-15T08:38:39;98020.69;;;1.11;77.37
78210;BME280;67485;48.816;9.930;2023-02-15T08:41:26;98021.00;;;1.22;77.03
78210;BME280;67485;48.816;9.930;2023-02-15T08:43:56;98014.75;;;1.44;76.28
78210;BME280;67485;48.816;9.930;2023-02-15T08:46:24;98012.81;;;1.68;75.09
78210;BME280;67485;48.816;9.930;2023-02-15T08:48:49;98010.25;;;2.01;73.88
78210;BME280;67485;48.816;9.930;2023-02-15T08:51:17;98013.47;;;2.26;73.18
78210;BME280;67485;48.816;9.930;2023-02-15T08:53:46;98018.97;;;2.38;72.73
78210;BME280;67485;48.816;9.930;2023-02-15T08:56:15;98017.53;;;2.50;73.38
78210;BME280;67485;48.816;9.930;2023-02-15T08:58:41;98022.31;;;2.34;72.96
78210;BME280;67485;48.816;9.930;2023-02-15T09:01:11;98012.66;;;2.62;73.44
78210;BME280;67485;48.816;9.930;2023-02-15T09:03:38;98012.63;;;2.99;73.06
78210;BME280;67485;48.816;9.930;2023-02-15T09:06:04;98013.38;;;2.93;72.24
78210;BME280;67485;48.816;9.930;2023-02-15T09:08:30;98003.00;;;2.93;72.63
78210;BME280;67485;48.816;9.930;2023-02-15T09:11:14;98011.38;;;3.21;72.60
78210;BME280;67485;48.816;9.930;2023-02-15T09:13:42;98010.28;;;3.51;71.38
78210;BME280;67485;48.816;9.930;2023-02-15T09:16:09;98016.34;;;3.53;71.10
78210;BME280;67485;48.816;9.930;2023-02-15T09:18:38;98007.94;;;3.63;70.52
78210;BME280;67485;48.816;9.930;2023-02-15T09:21:12;98008.66;;;3.56;70.81
78210;BME280;67485;48.816;9.930;2023-02-15T09:23:43;98016.38;;;3.99;69.09
78210;BME280;67485;48.816;9.930;2023-02-15T09:26:12;98004.38;;;4.04;69.48
78210;BME280;67485;48.816;9.930;2023-02-15T09:28:38;98004.69;;;4.21;69.30
78210;BME280;67485;48.816;9.930;2023-02-15T09:31:15;98004.97;;;4.38;68.54
78210;BME280;67485;48.816;9.930;2023-02-15T09:33:42;98001.59;;;4.42;68.86
78210;BME280;67485;48.816;9.930;2023-02-15T09:36:23;98011.28;;;4.54;68.50
78210;BME280;67485;48.816;9.930;2023-02-15T09:55:21;97997.19;;;7.90;59.31
78210;BME280;67485;48.816;9.930;2023-02-15T09:57:41;97995.53;;;9.16;55.65
78210;BME280;67485;48.816;9.930;2023-02-15T10:02:59;97995.59;;;8.85;54.39
78210;BME280;67485;48.816;9.930;2023-02-15T10:14:10;97985.84;;;10.91;51.29
78210;BME280;67485;48.816;9.930;2023-02-15T10:16:51;97982.94;;;11.92;50.13
78210;BME280;67485;48.816;9.930;2023-02-15T10:27:48;97975.75;;;12.67;46.63
78210;BME280;67485;48.816;9.930;2023-02-15T10:30:26;97973.44;;;13.00;46.97
78210;BME280;67485;48.816;9.930;2023-02-15T10:33:04;97959.69;;;12.82;45.26
78210;BME280;67485;48.816;9.930;2023-02-15T10:41:26;97944.41;;;13.92;41.98
78210;BME280;67485;48.816;9.930;2023-02-15T10:49:30;97934.66;;;13.55;42.86
78210;BME280;67485;48.816;9.930;2023-02-15T11:06:06;97908.06;;;15.14;39.96
78210;BME280;67485;48.816;9.930;2023-02-15T11:08:40;97906.16;;;13.74;41.89
78210;BME280;67485;48.816;9.930;2023-02-15T11:11:10;97905.88;;;13.87;43.50
78210;BME280;67485;48.816;9.930;2023-02-15T11:13:41;97900.81;;;14.53;41.99
78210;BME280;67485;48.816;9.930;2023-02-15T11:16:14;97893.41;;;15.33;40.94
78210;BME280;67485;48.816;9.930;2023-02-15T11:18:50;97894.25;;;15.65;39.36
78210;BME280;67485;48.816;9.930;2023-02-15T11:24:17;97895.69;;;15.76;39.72
78210;BME280;67485;48.816;9.930;2023-02-15T11:27:18;97895.09;;;15.04;42.13
78210;BME280;67485;48.816;9.930;2023-02-15T11:30:13;97894.69;;;16.10;39.46
78210;BME280;67485;48.816;9.930;2023-02-15T11:32:43;97890.59;;;15.69;39.67
78210;BME280;67485;48.816;9.930;2023-02-15T11:35:14;97883.66;;;16.24;39.16
78210;BME280;67485;48.816;9.930;2023-02-15T11:40:24;97880.38;;;17.45;36.40
78210;BME280;67485;48.816;9.930;2023-02-15T11:42:53;97876.31;;;17.82;35.39
78210;BME280;67485;48.816;9.930;2023-02-15T11:45:29;97883.91;;;16.96;36.92
78210;BME280;67485;48.816;9.930;2023-02-15T11:47:57;97877.31;;;16.01;38.33
78210;BME280;67485;48.816;9.930;2023-02-15T11:50:26;97868.31;;;16.87;37.58
78210;BME280;67485;48.816;9.930;2023-02-15T11:52:54;97871.19;;;18.44;35.38
78210;BME280;67485;48.816;9.930;2023-02-15T11:55:22;97868.75;;;17.73;35.01
78210;BME280;67485;48.816;9.930;2023-02-15T11:57:57;97868.75;;;17.49;35.85
78210;BME280;67485;48.816;9.930;2023-02-15T12:00:36;97863.78;;;18.52;35.39
78210;BME280;67485;48.816;9.930;2023-02-15T12:03:20;97859.38;;;17.62;36.27
78210;BME280;67485;48.816;9.930;2023-02-15T12:05:53;97862.97;;;17.38;36.59
78210;BME280;67485;48.816;9.930;2023-02-15T12:08:21;97856.72;;;17.64;35.95
78210;BME280;67485;48.816;9.930;2023-02-15T12:11:00;97859.84;;;17.50;35.47
78210;BME280;67485;48.816;9.930;2023-02-15T12:13:28;97860.47;;;16.84;36.47
78210;BME280;67485;48.816;9.930;2023-02-15T12:15:56;97854.44;;;16.55;38.07
78210;BME280;67485;48.816;9.930;2023-02-15T12:21:08;97845.69;;;17.27;36.36
78210;BME280;67485;48.816;9.930;2023-02-15T12:23:46;97845.00;;;17.22;35.11
78210;BME280;67485;48.816;9.930;2023-02-15T12:26:14;97836.78;;;17.76;34.90
78210;BME280;67485;48.816;9.930;2023-02-15T12:28:42;97843.72;;;16.58;35.11
78210;BME280;67485;48.816;9.930;2023-02-15T12:31:37;97839.66;;;17.24;35.55
78210;BME280;67485;48.816;9.930;2023-02-15T12:34:21;97841.84;;;16.35;35.58
78210;BME280;67485;48.816;9.930;2023-02-15T12:36:49;97845.50;;;16.83;36.66
78210;BME280;67485;48.816;9.930;2023-02-15T12:39:25;97835.97;;;16.79;35.14
78210;BME280;67485;48.816;9.930;2023-02-15T12:44:23;97831.09;;;16.66;34.11
78210;BME280;67485;48.816;9.930;2023-02-15T12:49:33;97832.34;;;14.83;33.43
78210;BME280;67485;48.816;9.930;2023-02-15T12:52:02;97819.81;;;15.21;36.70
78210;BME280;67485;48.816;9.930;2023-02-15T12:54:40;97824.50;;;14.80;37.30
78210;BME280;67485;48.816;9.930;2023-02-15T12:59:48;97822.88;;;14.06;40.10
78210;BME280;67485;48.816;9.930;2023-02-15T13:02:26;97813.06;;;13.75;39.29
78210;BME280;67485;48.816;9.930;2023-02-15T13:04:53;97820.84;;;13.42;43.07
78210;BME280;67485;48.816;9.930;2023-02-15T13:07:19;97815.13;;;13.20;39.93
78210;BME280;67485;48.816;9.930;2023-02-15T13:09:46;97809.94;;;13.17;41.78
78210;BME280;67485;48.816;9.930;2023-02-15T13:12:27;97811.66;;;13.20;42.14
78210;BME280;67485;48.816;9.930;2023-02-15T13:14:56;97808.75;;;12.90;42.09
78210;BME280;67485;48.816;9.930;2023-02-15T13:17:28;97806.19;;;12.85;41.39
78210;BME280;67485;48.816;9.930;2023-02-15T13:19:59;97810.06;;;12.67;40.61
78210;BME280;67485;48.816;9.930;2023-02-15T13:22:38;97806.47;;;12.71;42.14
78210;BME280;67485;48.816;9.930;2023-02-15T13:25:18;97807.25;;;12.28;41.12
78210;BME280;67485;48.816;9.930;2023-02-15T13:27:46;97814.25;;;12.29;43.44
78210;BME280;67485;48.816;9.930;2023-02-15T13:32:48;97807.50;;;12.14;44.56
78210;BME280;67485;48.816;9.930;2023-02-15T13:35:17;97811.84;;;12.16;45.25
78210;BME280;67485;48.816;9.930;2023-02-15T13:40:55;97801.84;;;11.84;44.88
78210;BME280;67485;48.816;9.930;2023-02-15T13:43:28;97799.06;;;11.92;44.73
78210;BME280;67485;48.816;9.930;2023-02-15T13:48:59;97789.00;;;12.20;43.99
78210;BME280;67485;48.816;9.930;2023-02-15T13:51:53;97793.63;;;12.07;44.79
78210;BME280;67485;48.816;9.930;2023-02-15T14:05:12;97789.41;;;12.45;41.69
78210;BME280;67485;48.816;9.930;2023-02-15T14:10:46;97780.91;;;12.32;42.65
78210;BME280;67485;48.816;9.930;2023-02-15T14:16:23;97783.47;;;12.37;42.52
78210;BME280;67485;48.816;9.930;2023-02-15T14:19:03;97784.28;;;12.39;42.98
78210;BME280;67485;48.816;9.930;2023-02-15T14:24:16;97784.34;;;12.36;41.92
78210;BME280;67485;48.816;9.930;2023-02-15T14:26:49;97780.06;;;12.30;42.12
78210;BME280;67485;48.816;9.930;2023-02-15T14:29:28;97777.56;;;12.23;42.39
78210;BME280;67485;48.816;9.930;2023-02-15T14:32:09;97779.38;;;12.21;44.75
78210;BME280;67485;48.816;9.930;2023-02-15T14:34:52;97778.56;;;12.17;43.63
78210;BME280;67485;48.816;9.930;2023-02-15T14:37:46;97783.50;;;12.34;42.79
78210;BME280;67485;48.816;9.930;2023-02-15T14:41:24;97777.06;;;12.51;42.91
78210;BME280;67485;48.816;9.930;2023-02-15T14:46:41;97778.38;;;12.26;43.44
78210;BME280;67485;48.816;9.930;2023-02-15T14:49:22;97780.31;;;12.16;44.36
78210;BME280;67485;48.816;9.930;2023-02-15T14:56:45;97782.13;;;12.13;45.42
78210;BME280;67485;48.816;9.930;2023-02-15T15:01:37;97785.06;;;11.93;44.00
78210;BME280;67485;48.816;9.930;2023-02-15T15:04:14;97784.06;;;12.02;44.45
78210;BME280;67485;48.816;9.930;2023-02-15T15:07:41;97781.44;;;12.03;45.23
78210;BME280;67485;48.816;9.930;2023-02-15T15:09:57;97779.72;;;11.99;45.13
78210;BME280;67485;48.816;9.930;2023-02-15T15:14:50;97783.16;;;12.04;44.86
78210;BME280;67485;48.816;9.930;2023-02-15T15:22:26;97780.34;;;11.59;45.18
78210;BME280;67485;48.816;9.930;2023-02-15T15:25:08;97778.94;;;11.36;46.01
78210;BME280;67485;48.816;9.930;2023-02-15T15:35:24;97774.81;;;11.19;46.88
78210;BME280;67485;48.816;9.930;2023-02-15T15:43:34;97775.94;;;11.61;44.74
78210;BME280;67485;48.816;9.930;2023-02-15T15:46:06;97772.47;;;11.59;44.99
78210;BME280;67485;48.816;9.930;2023-02-15T15:48:37;97770.63;;;11.64;44.81
78210;BME280;67485;48.816;9.930;2023-02-15T15:53:42;97768.28;;;11.45;46.06
78210;BME280;67485;48.816;9.930;2023-02-15T15:56:14;97766.69;;;11.35;46.46
78210;BME280;67485;48.816;9.930;2023-02-15T15:58:45;97773.00;;;11.22;48.11
78210;BME280;67485;48.816;9.930;2023-02-15T16:01:13;97769.66;;;11.12;47.86
78210;BME280;67485;48.816;9.930;2023-02-15T16:03:54;97773.22;;;11.06;48.24
78210;BME280;67485;48.816;9.930;2023-02-15T16:06:28;97771.56;;;11.00;48.23
78210;BME280;67485;48.816;9.930;2023-02-15T16:08:55;97776.06;;;10.91;49.80
78210;BME280;67485;48.816;9.930;2023-02-15T16:11:24;97778.09;;;10.67;50.61
78210;BME280;67485;48.816;9.930;2023-02-15T16:13:50;97778.41;;;10.36;49.75